Aviation Digital Data Service (ADDS)

Output produced by METARs form (1005 UTC 23 October 2017)
found at http://aviationweather.gov/adds/metars/
 
KBAF 230850Z 2309/2406 00000KT 4SM BR SCT001 OVC007 
     FM231300 VRB03KT P6SM BKN008 
     FM232100 16006KT P6SM OVC035 
     FM232200 16005KT P6SM VCSH OVC030